Bushong, Kansas
Current Conditions -  °F | °C
As of 12:09 PM on Sunday 25 Jan 2015 (Local Time) from KEMP Reporting Station
Broken Clouds Broken Clouds  
Wind Chill: 36°   Ceiling: 2900
Heat Index: 45°   Visibility: 10mi
Dew Point: 31°   Wind: 24mph
Humidity: 58%   Direction: 340°NNW
Pressure: 29.9"   Gusts: 39mph
Location:  38.6329°N, 96.2407°W
Report Text: KEMP 251809Z AUTO 34021G34KT 10SM BKN029 07/M01 A2990 RMK AO2 PK WND 35034/1803 T00721006
Loading
Personal Weather Stations






























Interactive Weather Map New forecast layout! Learn more

10-Day Weather Forecast

Advertisements
Track Severe Weather on mobile